createdAt,value
2019-01-19T00:00:28.932Z,15.30
2019-01-19T00:03:22.003Z,15.20
2019-01-19T00:06:10.347Z,13.07
2019-01-19T00:08:44.789Z,14.73
2019-01-19T00:11:36.678Z,14.43
2019-01-19T00:14:13.357Z,12.30
2019-01-19T00:17:06.444Z,13.73
2019-01-19T00:19:55.035Z,11.90
2019-01-19T00:22:52.281Z,12.73
2019-01-19T00:25:45.507Z,12.03
2019-01-19T00:28:24.714Z,10.50
2019-01-19T00:31:20.433Z,11.57
2019-01-19T00:34:20.790Z,10.97
2019-01-19T00:36:57.490Z,11.10
2019-01-19T00:39:46.033Z,11.13
2019-01-19T00:42:22.609Z,14.57
2019-01-19T00:45:20.152Z,11.00
2019-01-19T00:48:14.694Z,10.90
2019-01-19T00:50:57.554Z,11.73
2019-01-19T00:53:34.508Z,11.53
2019-01-19T00:56:32.368Z,13.13
2019-01-19T00:59:11.769Z,10.27
2019-01-19T01:02:03.337Z,10.73
2019-01-19T01:04:45.845Z,11.40
2019-01-19T01:07:37.693Z,10.90
2019-01-19T01:10:17.234Z,11.07
2019-01-19T01:13:21.019Z,11.70
2019-01-19T01:15:57.670Z,10.93
2019-01-19T01:18:46.304Z,12.43
2019-01-19T01:21:28.648Z,12.20
2019-01-19T01:24:19.721Z,13.73
2019-01-19T01:26:56.315Z,11.83
2019-01-19T01:29:58.785Z,13.17
2019-01-19T01:32:38.286Z,13.83
2019-01-19T01:35:32.805Z,14.63
2019-01-19T01:38:20.167Z,16.00
2019-01-19T01:41:29.929Z,14.57
2019-01-19T01:44:12.272Z,13.80
2019-01-19T01:47:07.180Z,15.27
2019-01-19T01:49:43.764Z,16.20
2019-01-19T01:52:29.008Z,13.97
2019-01-19T01:55:17.478Z,14.87
2019-01-19T01:57:54.266Z,14.53
2019-01-19T02:00:48.922Z,16.10
2019-01-19T02:03:43.375Z,15.40
2019-01-19T02:06:40.467Z,15.43
2019-01-19T02:09:33.674Z,15.33
2019-01-19T02:12:31.678Z,14.77
2019-01-19T02:15:12.502Z,19.23
2019-01-19T02:17:52.116Z,18.10
2019-01-19T02:20:47.203Z,15.30
2019-01-19T02:23:35.637Z,18.00
2019-01-19T02:26:21.111Z,16.60
2019-01-19T02:29:13.016Z,16.63
2019-01-19T02:31:49.691Z,18.60
2019-01-19T02:34:26.341Z,18.13
2019-01-19T02:37:08.601Z,17.03
2019-01-19T02:40:03.253Z,15.90
2019-01-19T02:42:45.698Z,18.27
2019-01-19T02:45:43.126Z,16.30
2019-01-19T02:48:19.629Z,20.50
2019-01-19T02:50:56.156Z,19.60
2019-01-19T02:53:44.708Z,19.70
2019-01-19T02:56:23.951Z,19.43
2019-01-19T02:59:00.827Z,18.90
2019-01-19T03:01:54.214Z,20.50
2019-01-19T03:04:45.930Z,19.00
2019-01-19T03:07:28.127Z,21.00
2019-01-19T03:10:27.373Z,18.03
2019-01-19T03:13:13.030Z,18.57
2019-01-19T03:16:18.302Z,18.37
2019-01-19T03:18:57.723Z,16.80
2019-01-19T03:21:45.973Z,17.17
2019-01-19T03:24:25.682Z,19.27
2019-01-19T03:27:07.927Z,19.20
2019-01-19T03:30:18.759Z,18.20
2019-01-19T03:33:00.875Z,18.67
2019-01-19T03:35:38.428Z,20.27
2019-01-19T03:38:17.419Z,23.63
2019-01-19T03:41:21.256Z,21.03
2019-01-19T03:44:09.604Z,21.00
2019-01-19T03:46:55.147Z,19.20
2019-01-19T03:49:34.499Z,20.00
2019-01-19T03:52:17.067Z,18.70
2019-01-19T03:55:18.762Z,21.60
2019-01-19T03:58:07.041Z,21.63
2019-01-19T04:00:43.629Z,21.23
2019-01-19T04:03:26.800Z,21.20
2019-01-19T04:06:21.229Z,22.97
2019-01-19T04:09:30.960Z,21.13
2019-01-19T04:12:13.453Z,19.97
2019-01-19T04:15:12.708Z,20.40
2019-01-19T04:18:07.416Z,23.03
2019-01-19T04:21:03.734Z,22.97
2019-01-19T04:23:37.548Z,21.17
2019-01-19T04:26:12.343Z,23.23
2019-01-19T04:28:46.048Z,22.00
2019-01-19T04:31:19.495Z,23.70
2019-01-19T04:33:53.280Z,22.63
2019-01-19T04:36:27.326Z,22.27
2019-01-19T04:39:01.314Z,23.83
2019-01-19T04:41:34.754Z,21.93
2019-01-19T04:44:08.160Z,21.73
2019-01-19T04:46:41.583Z,22.30
2019-01-19T04:49:14.985Z,22.27
2019-01-19T04:51:48.414Z,21.33
2019-01-19T04:54:21.747Z,21.50
2019-01-19T04:56:55.572Z,21.80
2019-01-19T04:59:28.896Z,23.97
2019-01-19T05:02:02.422Z,23.33
2019-01-19T05:04:35.731Z,22.63
2019-01-19T05:07:09.095Z,23.50
2019-01-19T05:09:42.422Z,22.73
2019-01-19T05:12:15.786Z,24.30
2019-01-19T05:14:49.120Z,22.70
2019-01-19T05:17:22.565Z,21.57
2019-01-19T05:19:55.896Z,21.20
2019-01-19T05:22:29.340Z,22.67
2019-01-19T05:25:02.673Z,21.03
2019-01-19T05:27:36.053Z,21.23
2019-01-19T05:30:17.599Z,21.83
2019-01-19T05:32:51.277Z,22.70
2019-01-19T05:35:24.658Z,21.90
2019-01-19T05:37:58.055Z,22.67
2019-01-19T05:40:31.389Z,24.50
2019-01-19T05:43:05.202Z,23.00
2019-01-19T05:45:38.602Z,23.27
2019-01-19T05:48:11.967Z,22.77
2019-01-19T05:50:45.366Z,22.00
2019-01-19T05:53:18.730Z,22.50
2019-01-19T05:55:52.146Z,22.53
2019-01-19T05:58:25.524Z,23.57
2019-01-19T06:00:58.851Z,24.00
2019-01-19T06:03:32.214Z,23.67
2019-01-19T06:06:05.983Z,23.07
2019-01-19T06:08:39.542Z,21.73
2019-01-19T06:11:12.856Z,21.33
2019-01-19T06:13:46.214Z,23.20
2019-01-19T06:16:19.679Z,21.10
2019-01-19T06:18:53.374Z,21.83
2019-01-19T06:21:27.769Z,22.87
2019-01-19T06:24:01.200Z,22.97
2019-01-19T06:26:34.612Z,23.53
2019-01-19T06:29:07.997Z,23.17
2019-01-19T06:31:41.322Z,21.40
2019-01-19T06:34:14.701Z,21.37
2019-01-19T06:36:54.884Z,25.40
2019-01-19T06:39:23.242Z,21.40
2019-01-19T06:41:56.643Z,22.90
2019-01-19T06:44:30.083Z,20.37
2019-01-19T06:47:03.417Z,22.93
2019-01-19T06:49:36.940Z,22.30
2019-01-19T06:52:11.113Z,20.67
2019-01-19T06:54:44.472Z,21.13
2019-01-19T06:57:17.808Z,22.17
2019-01-19T06:59:51.166Z,21.17
2019-01-19T07:02:24.566Z,22.27
2019-01-19T07:04:58.035Z,22.13
2019-01-19T07:07:31.365Z,22.00
2019-01-19T07:10:07.984Z,23.13
2019-01-19T07:12:41.381Z,20.77
2019-01-19T07:15:15.091Z,21.87
2019-01-19T07:17:48.501Z,20.53
2019-01-19T07:20:27.697Z,20.70
2019-01-19T07:23:01.107Z,21.87
2019-01-19T07:25:34.475Z,22.10
2019-01-19T07:28:07.992Z,22.30
2019-01-19T07:30:41.419Z,23.53
2019-01-19T07:33:14.816Z,23.93
2019-01-19T07:35:48.254Z,27.87
2019-01-19T07:38:21.685Z,49.00
2019-01-19T07:40:55.132Z,132.70
2019-01-19T07:43:28.842Z,54.33
2019-01-19T07:46:02.695Z,45.03
2019-01-19T07:48:36.112Z,41.97
2019-01-19T07:51:09.554Z,32.27
2019-01-19T07:53:42.953Z,26.37
2019-01-19T07:56:16.361Z,25.60
2019-01-19T07:58:49.641Z,21.07
2019-01-19T08:01:23.072Z,22.20
2019-01-19T08:03:56.500Z,22.47
2019-01-19T08:06:30.068Z,25.63
2019-01-19T08:09:05.118Z,22.50
2019-01-19T08:11:38.571Z,23.37
2019-01-19T08:14:11.976Z,23.80
2019-01-19T08:16:45.483Z,22.50
2019-01-19T08:19:18.881Z,23.67
2019-01-19T08:21:52.311Z,53.13
2019-01-19T08:24:25.640Z,44.47
2019-01-19T08:26:59.000Z,33.93
2019-01-19T08:29:32.472Z,30.97
2019-01-19T08:32:06.325Z,27.87
2019-01-19T08:34:39.674Z,25.37
2019-01-19T08:37:13.213Z,25.20
2019-01-19T08:39:46.951Z,26.20
2019-01-19T08:42:20.318Z,26.67
2019-01-19T08:44:54.604Z,24.67
2019-01-19T08:47:27.971Z,26.37
2019-01-19T08:50:01.299Z,25.37
2019-01-19T08:52:34.740Z,23.57
2019-01-19T08:55:11.101Z,22.37
2019-01-19T08:57:44.640Z,19.77
2019-01-19T09:00:19.608Z,20.57
2019-01-19T09:02:53.379Z,19.87
2019-01-19T09:05:26.799Z,19.83
2019-01-19T09:08:00.231Z,19.90
2019-01-19T09:10:33.573Z,20.33
2019-01-19T09:13:07.446Z,15.87
2019-01-19T09:15:40.853Z,15.97
2019-01-19T09:18:14.714Z,19.13
2019-01-19T09:20:48.043Z,14.83
2019-01-19T09:23:28.894Z,15.40
2019-01-19T09:26:02.223Z,14.93
2019-01-19T09:28:35.575Z,15.10
2019-01-19T09:31:08.978Z,14.67
2019-01-19T09:33:42.426Z,14.57
2019-01-19T09:36:15.764Z,13.93
2019-01-19T09:38:49.261Z,13.33
2019-01-19T09:41:22.656Z,15.00
2019-01-19T09:43:56.029Z,12.50
2019-01-19T09:46:29.425Z,13.57
2019-01-19T09:49:02.784Z,13.43
2019-01-19T09:51:36.333Z,13.43
2019-01-19T09:54:09.761Z,16.00
2019-01-19T09:56:43.155Z,13.10
2019-01-19T09:59:16.529Z,13.27
2019-01-19T10:01:49.859Z,14.10
2019-01-19T10:04:23.692Z,15.93
2019-01-19T10:06:57.094Z,13.67
2019-01-19T10:09:30.524Z,14.50
2019-01-19T10:12:04.012Z,13.53
2019-01-19T10:14:37.438Z,13.77
2019-01-19T10:17:10.834Z,14.67
2019-01-19T10:19:44.272Z,13.43
2019-01-19T10:22:17.597Z,13.53
2019-01-19T10:24:50.978Z,13.97
2019-01-19T10:27:24.379Z,13.80
2019-01-19T10:29:58.052Z,17.07
2019-01-19T10:32:31.468Z,15.50
2019-01-19T10:35:08.077Z,14.33
2019-01-19T10:37:41.480Z,14.07
2019-01-19T10:40:18.733Z,13.97
2019-01-19T10:42:52.136Z,12.80
2019-01-19T10:45:27.806Z,13.47
2019-01-19T10:48:01.423Z,12.47
2019-01-19T10:50:34.959Z,11.97
2019-01-19T10:53:08.358Z,12.03
2019-01-19T10:55:41.786Z,11.40
2019-01-19T10:58:15.114Z,11.40
2019-01-19T11:00:48.567Z,10.50
2019-01-19T11:03:21.894Z,10.90
2019-01-19T11:05:55.395Z,11.27
2019-01-19T11:08:28.722Z,10.27
2019-01-19T11:11:02.152Z,10.17
2019-01-19T11:13:35.480Z,8.57
2019-01-19T11:16:09.353Z,10.00
2019-01-19T11:18:42.745Z,9.37
2019-01-19T11:21:16.255Z,9.80
2019-01-19T11:23:49.648Z,8.23
2019-01-19T11:26:23.544Z,6.73
2019-01-19T11:28:56.864Z,7.03
2019-01-19T11:31:32.058Z,8.07
2019-01-19T11:34:05.433Z,6.30
2019-01-19T11:36:38.792Z,6.40
2019-01-19T11:39:12.190Z,6.60
2019-01-19T11:41:45.544Z,5.07
2019-01-19T11:44:18.860Z,5.50
2019-01-19T11:46:52.287Z,4.80
2019-01-19T11:49:25.607Z,5.60
2019-01-19T11:51:59.039Z,5.20
2019-01-19T11:54:32.435Z,4.70
2019-01-19T11:57:05.794Z,4.77
2019-01-19T11:59:39.181Z,4.90
2019-01-19T12:02:12.625Z,4.93
2019-01-19T12:04:45.960Z,4.87
2019-01-19T12:07:19.973Z,4.63
2019-01-19T12:09:53.380Z,4.73
2019-01-19T12:12:26.886Z,5.00
2019-01-19T12:15:00.273Z,4.57
2019-01-19T12:17:34.271Z,4.37
2019-01-19T12:20:19.816Z,4.73
2019-01-19T12:22:53.388Z,5.20
2019-01-19T12:25:26.857Z,4.97
2019-01-19T12:28:00.208Z,4.60
2019-01-19T12:30:34.676Z,4.33
2019-01-19T12:33:08.186Z,4.80
2019-01-19T12:35:41.575Z,4.53
2019-01-19T12:38:14.993Z,4.33
2019-01-19T12:40:48.568Z,4.60
2019-01-19T12:43:21.918Z,4.23
2019-01-19T12:45:55.946Z,4.60
2019-01-19T12:48:29.470Z,5.17
2019-01-19T12:51:02.863Z,4.30
2019-01-19T12:53:36.295Z,4.27
2019-01-19T12:56:09.619Z,4.30
2019-01-19T12:58:43.045Z,4.10
2019-01-19T13:01:16.439Z,3.80
2019-01-19T13:03:50.195Z,4.40
2019-01-19T13:06:29.493Z,4.30
2019-01-19T13:09:12.270Z,4.10
2019-01-19T13:11:47.430Z,4.33
2019-01-19T13:14:21.345Z,3.43
2019-01-19T13:17:23.580Z,4.10
2019-01-19T13:20:15.464Z,4.07
2019-01-19T13:22:54.887Z,3.40
2019-01-19T13:25:34.419Z,3.67
2019-01-19T13:28:29.270Z,3.97
2019-01-19T13:31:08.649Z,3.80
2019-01-19T13:34:07.748Z,3.70
2019-01-19T13:36:50.164Z,3.63
2019-01-19T13:39:35.631Z,4.10
2019-01-19T13:42:30.299Z,4.50
2019-01-19T13:45:23.673Z,4.43
2019-01-19T13:48:12.444Z,4.30
2019-01-19T13:50:52.095Z,4.37
2019-01-19T13:53:46.695Z,4.07
2019-01-19T13:56:28.834Z,3.97
2019-01-19T13:59:11.376Z,4.70
2019-01-19T14:02:04.098Z,3.57
2019-01-19T14:05:00.301Z,4.60
2019-01-19T14:07:55.012Z,3.93
2019-01-19T14:10:31.539Z,4.70
2019-01-19T14:13:14.015Z,4.47
2019-01-19T14:15:56.419Z,4.20
2019-01-19T14:18:33.095Z,4.85
2019-01-19T14:21:21.816Z,4.53
2019-01-19T14:24:07.221Z,4.60
2019-01-19T14:26:49.950Z,4.37
2019-01-19T14:29:47.517Z,4.53
2019-01-19T14:32:30.536Z,4.60
2019-01-19T14:35:26.626Z,4.13
2019-01-19T14:38:31.786Z,3.67
2019-01-19T14:41:26.599Z,4.27
2019-01-19T14:44:12.130Z,4.07
2019-01-19T14:47:07.187Z,4.27
2019-01-19T14:49:43.714Z,4.10
2019-01-19T14:52:32.354Z,4.03
2019-01-19T14:55:11.682Z,4.40
2019-01-19T14:57:48.351Z,4.70
2019-01-19T15:00:51.908Z,4.57
2019-01-19T15:03:35.233Z,4.70
2019-01-19T15:06:34.684Z,4.70
2019-01-19T15:09:16.482Z,4.10
2019-01-19T15:12:09.806Z,4.33
2019-01-19T15:15:06.781Z,4.63
2019-01-19T15:17:46.527Z,4.33
2019-01-19T15:20:29.121Z,5.13
2019-01-19T15:23:23.020Z,12.50
2019-01-19T15:26:31.370Z,12.83
2019-01-19T15:29:22.425Z,10.20
2019-01-19T15:32:22.484Z,10.00
2019-01-19T15:35:14.294Z,8.60
2019-01-19T15:37:59.634Z,8.47
2019-01-19T15:40:55.970Z,6.20
2019-01-19T15:43:53.222Z,6.47
2019-01-19T15:46:48.388Z,6.43
2019-01-19T15:49:41.052Z,7.63
2019-01-19T15:52:20.303Z,6.73
2019-01-19T15:54:59.264Z,6.60
2019-01-19T15:57:48.035Z,7.13
2019-01-19T16:00:30.524Z,6.57
2019-01-19T16:03:35.245Z,5.87
2019-01-19T16:06:29.974Z,7.33
2019-01-19T16:09:23.548Z,7.83
2019-01-19T16:12:12.127Z,9.40
2019-01-19T16:15:05.385Z,11.43
2019-01-19T16:18:13.840Z,13.20
2019-01-19T16:21:08.484Z,13.17
2019-01-19T16:23:59.869Z,10.80
2019-01-19T16:26:36.569Z,9.53
2019-01-19T16:29:21.955Z,8.93
2019-01-19T16:32:08.068Z,9.93
2019-01-19T16:35:10.088Z,20.23
2019-01-19T16:37:49.647Z,26.27
2019-01-19T16:40:28.965Z,20.10
2019-01-19T16:43:23.765Z,18.53
2019-01-19T16:46:09.364Z,18.70
2019-01-19T16:48:55.094Z,13.83
2019-01-19T16:51:37.251Z,11.47
2019-01-19T16:54:26.419Z,11.33
2019-01-19T16:57:29.975Z,8.80
2019-01-19T17:00:18.483Z,10.10
2019-01-19T17:03:19.422Z,13.10
2019-01-19T17:05:58.820Z,11.97
2019-01-19T17:08:38.269Z,12.17
2019-01-19T17:11:35.481Z,12.13
2019-01-19T17:14:31.441Z,11.77
2019-01-19T17:17:19.892Z,11.30
2019-01-19T17:20:31.000Z,11.27
2019-01-19T17:23:16.274Z,14.23
2019-01-19T17:25:55.653Z,13.70
2019-01-19T17:28:41.092Z,13.57
2019-01-19T17:31:17.591Z,14.47
2019-01-19T17:33:59.999Z,13.97
2019-01-19T17:36:48.563Z,15.27
2019-01-19T17:39:43.307Z,12.27
2019-01-19T17:42:40.708Z,13.80
2019-01-19T17:45:26.441Z,13.63
2019-01-19T17:48:24.347Z,12.07
2019-01-19T17:51:21.850Z,11.63
2019-01-19T17:54:15.083Z,10.40
2019-01-19T17:56:57.170Z,9.63
2019-01-19T17:59:39.395Z,9.63
2019-01-19T18:02:44.754Z,10.53
2019-01-19T18:05:36.492Z,11.30
2019-01-19T18:08:28.613Z,12.03
2019-01-19T18:11:05.143Z,11.27
2019-01-19T18:13:50.927Z,11.90
2019-01-19T18:16:33.405Z,12.90
2019-01-19T18:19:24.616Z,13.30
2019-01-19T18:22:13.248Z,11.47
2019-01-19T18:25:15.533Z,14.50
2019-01-19T18:28:00.998Z,12.83
2019-01-19T18:30:40.713Z,13.80
2019-01-19T18:33:26.277Z,14.03
2019-01-19T18:36:08.396Z,14.77
2019-01-19T18:39:04.853Z,13.03
2019-01-19T18:42:07.235Z,13.50
2019-01-19T18:44:52.523Z,13.97
2019-01-19T18:47:37.966Z,15.13
2019-01-19T18:50:37.098Z,15.70
2019-01-19T18:53:19.908Z,14.37
2019-01-19T18:56:14.799Z,14.07
2019-01-19T18:58:54.265Z,13.00
2019-01-19T19:01:45.769Z,15.07
2019-01-19T19:04:25.342Z,15.37
2019-01-19T19:07:16.760Z,16.20
2019-01-19T19:10:02.223Z,19.10
2019-01-19T19:12:58.673Z,15.97
2019-01-19T19:15:53.432Z,15.37
2019-01-19T19:18:41.826Z,15.93
2019-01-19T19:21:36.312Z,16.80
2019-01-19T19:24:44.309Z,19.37
2019-01-19T19:27:32.716Z,24.73
2019-01-19T19:30:45.641Z,24.67
2019-01-19T19:33:28.149Z,26.90
2019-01-19T19:36:21.375Z,22.60
2019-01-19T19:39:17.844Z,29.87
2019-01-19T19:42:20.181Z,29.23
2019-01-19T19:45:21.206Z,24.27
2019-01-19T19:48:15.779Z,24.97
2019-01-19T19:51:09.791Z,25.03
2019-01-19T19:53:43.197Z,23.10
2019-01-19T19:56:15.544Z,19.77
2019-01-19T19:58:48.876Z,17.43
2019-01-19T20:01:22.315Z,17.10
2019-01-19T20:03:55.721Z,16.40
2019-01-19T20:06:29.560Z,16.80
2019-01-19T20:09:03.031Z,15.93
2019-01-19T20:11:36.626Z,16.73
2019-01-19T20:14:10.091Z,16.93
2019-01-19T20:16:43.449Z,18.57
2019-01-19T20:19:16.848Z,17.57
2019-01-19T20:21:50.282Z,18.13
2019-01-19T20:24:23.684Z,18.97
2019-01-19T20:26:57.397Z,19.73
2019-01-19T20:29:30.733Z,30.17
2019-01-19T20:32:04.738Z,30.43
2019-01-19T20:34:38.137Z,32.27
2019-01-19T20:37:11.500Z,27.83
2019-01-19T20:39:44.911Z,23.30
2019-01-19T20:42:18.279Z,21.10
2019-01-19T20:44:51.674Z,20.63
2019-01-19T20:47:25.043Z,25.87
2019-01-19T20:49:58.443Z,25.37
2019-01-19T20:52:31.803Z,21.57
2019-01-19T20:55:07.770Z,21.53
2019-01-19T20:57:41.273Z,19.57
2019-01-19T21:00:17.114Z,20.07
2019-01-19T21:02:50.484Z,19.10
2019-01-19T21:05:23.880Z,20.13
2019-01-19T21:07:57.244Z,20.30
2019-01-19T21:10:31.871Z,22.57
2019-01-19T21:13:05.762Z,33.57
2019-01-19T21:15:39.157Z,31.50
2019-01-19T21:18:12.611Z,33.33
2019-01-19T21:20:45.945Z,33.47
2019-01-19T21:23:19.317Z,27.17
2019-01-19T21:25:52.725Z,27.53
2019-01-19T21:28:26.182Z,26.47
2019-01-19T21:30:59.507Z,28.57
2019-01-19T21:33:33.264Z,30.27
2019-01-19T21:36:06.878Z,30.33
2019-01-19T21:38:40.308Z,24.80
2019-01-19T21:41:13.702Z,28.03
2019-01-19T21:43:47.065Z,27.23
2019-01-19T21:46:20.460Z,25.37
2019-01-19T21:48:53.815Z,24.97
2019-01-19T21:51:27.214Z,27.53
2019-01-19T21:54:00.582Z,26.77
2019-01-19T21:56:33.982Z,23.70
2019-01-19T21:59:07.430Z,25.17
2019-01-19T22:01:40.832Z,25.20
2019-01-19T22:04:14.190Z,24.73
2019-01-19T22:06:47.599Z,22.80
2019-01-19T22:09:20.969Z,26.70
2019-01-19T22:11:54.289Z,24.37
2019-01-19T22:14:27.668Z,23.17
2019-01-19T22:17:01.002Z,20.90
2019-01-19T22:19:34.438Z,20.50
2019-01-19T22:22:07.902Z,22.17
2019-01-19T22:24:41.324Z,22.20
2019-01-19T22:27:15.714Z,20.13
2019-01-19T22:29:49.241Z,20.13
2019-01-19T22:32:22.811Z,20.43
2019-01-19T22:34:56.169Z,20.63
2019-01-19T22:37:29.500Z,20.23
2019-01-19T22:40:03.125Z,20.03
2019-01-19T22:42:36.523Z,21.57
2019-01-19T22:45:12.306Z,21.33
2019-01-19T22:47:45.759Z,22.07
2019-01-19T22:50:19.580Z,20.53
2019-01-19T22:52:52.978Z,20.27
2019-01-19T22:55:26.565Z,20.37
2019-01-19T22:57:59.969Z,21.80
2019-01-19T23:00:57.244Z,21.57
2019-01-19T23:03:32.226Z,18.60
2019-01-19T23:06:05.738Z,19.70
2019-01-19T23:08:39.146Z,19.37
2019-01-19T23:11:12.577Z,19.23
2019-01-19T23:13:45.913Z,20.23
2019-01-19T23:16:19.346Z,21.10
2019-01-19T23:18:53.048Z,20.27
2019-01-19T23:21:26.873Z,20.57
2019-01-19T23:24:00.225Z,20.83
2019-01-19T23:26:33.924Z,20.67
2019-01-19T23:29:07.561Z,21.40
2019-01-19T23:31:40.981Z,19.70
2019-01-19T23:34:14.384Z,19.67
2019-01-19T23:36:48.339Z,20.07
2019-01-19T23:39:21.741Z,18.87
2019-01-19T23:41:55.955Z,19.17
2019-01-19T23:44:29.348Z,20.27
2019-01-19T23:47:02.987Z,20.80
2019-01-19T23:49:36.482Z,21.33
2019-01-19T23:52:10.183Z,18.03
2019-01-19T23:54:43.691Z,21.13
2019-01-19T23:57:17.205Z,17.50
2019-01-19T23:59:50.671Z,21.20
